Time;durP1;ratioP1;P1;durP2;ratioP2;P2;SDS_P1;SDS_P2;PMS_P1;PMS_P2;Temp;Humidity;BMP_temperature;BMP_pressure;BME280_temperature;BME280_humidity;BME280_pressure;Samples;Min_cycle;Max_cycle;Signal;HPM_P1;HPM_P2
2021/09/09 00:01:59;;;;;;;20.77;16.05;;;;;;;12.97;64.54;101156.11;1709441;82;20913;-78
2021/09/09 00:04:25;;;;;;;19.98;15.35;;;;;;;12.96;64.61;101158.28;1722760;82;26946;-78
2021/09/09 00:06:52;;;;;;;23.32;16.23;;;;;;;12.97;64.67;101155.25;1709330;82;21450;-78
2021/09/09 00:09:19;;;;;;;23.30;16.32;;;;;;;12.97;64.66;101155.25;1722441;82;20901;-78
2021/09/09 00:11:46;;;;;;;23.77;16.15;;;;;;;12.96;64.68;101147.05;1720985;82;21431;-78
2021/09/09 00:14:12;;;;;;;24.47;15.28;;;;;;;12.96;64.74;101145.75;1722155;82;20945;-78
2021/09/09 00:16:39;;;;;;;19.65;13.88;;;;;;;12.96;64.81;101153.09;1719556;82;21362;-78
2021/09/09 00:19:06;;;;;;;20.25;13.25;;;;;;;12.96;64.78;101140.55;1726191;82;20946;-78
2021/09/09 00:21:32;;;;;;;19.40;13.20;;;;;;;12.94;64.80;101141.87;1723216;82;20938;-78
2021/09/09 00:24:01;;;;;;;18.27;13.85;;;;;;;12.89;64.79;101140.66;1721978;82;20918;-78
2021/09/09 00:26:27;;;;;;;16.20;12.98;;;;;;;12.87;64.84;101145.02;1721368;82;20889;-78
2021/09/09 00:28:53;;;;;;;17.07;13.32;;;;;;;12.85;64.90;101145.48;1727163;82;21399;-78
2021/09/09 00:31:22;;;;;;;17.30;13.03;;;;;;;12.85;64.96;101148.52;1721133;82;20902;-78
2021/09/09 00:33:49;;;;;;;27.22;14.23;;;;;;;12.82;64.98;101140.34;1722439;81;21711;-78
2021/09/09 00:36:15;;;;;;;17.35;13.70;;;;;;;12.80;65.02;101149.89;1722478;82;21752;-78
2021/09/09 00:38:43;;;;;;;19.45;14.15;;;;;;;12.81;65.05;101142.97;1724704;82;20863;-78
2021/09/09 00:41:10;;;;;;;18.35;14.20;;;;;;;12.80;65.08;101137.36;1714722;82;21441;-78
2021/09/09 00:43:36;;;;;;;16.30;14.25;;;;;;;12.79;65.10;101139.09;1715768;82;20895;-78
2021/09/09 00:46:12;;;;;;;17.43;14.27;;;;;;;12.77;65.16;101138.71;1723090;82;21701;-78
2021/09/09 00:48:38;;;;;;;16.48;13.68;;;;;;;12.74;65.21;101139.62;1717887;82;21358;-78
2021/09/09 00:51:05;;;;;;;21.80;15.05;;;;;;;12.74;65.23;101135.72;1721478;82;21389;-78
2021/09/09 00:53:31;;;;;;;20.17;14.45;;;;;;;12.74;65.30;101132.27;1725902;82;21424;-78
2021/09/09 00:55:58;;;;;;;18.57;13.95;;;;;;;12.73;65.25;101127.52;1718850;82;20881;-78
2021/09/09 00:58:25;;;;;;;18.12;13.88;;;;;;;12.71;65.34;101125.83;1725961;82;20899;-78
2021/09/09 01:00:53;;;;;;;17.87;13.25;;;;;;;12.70;65.35;101121.53;1711467;82;21019;-78
2021/09/09 01:03:19;;;;;;;15.93;13.00;;;;;;;12.68;65.38;101122.85;1715034;82;21045;-78
2021/09/09 01:05:46;;;;;;;20.35;14.28;;;;;;;12.66;65.44;101118.13;1710500;82;21046;-78
2021/09/09 01:08:12;;;;;;;16.25;13.50;;;;;;;12.64;65.47;101117.30;1679032;84;21040;-78
2021/09/09 01:10:39;;;;;;;22.07;14.10;;;;;;;12.62;65.49;101123.39;1675100;84;21440;-78
2021/09/09 01:13:09;;;;;;;;;;;;;;;12.60;65.54;101115.63;1665214;85;20945;-78
2021/09/09 01:15:41;;;;;;;18.27;13.00;;;;;;;12.58;65.98;101118.69;1661829;82;20566;-78
2021/09/09 01:18:13;;;;;;;16.20;13.40;;;;;;;12.56;65.63;101121.75;1733342;81;21476;-78
2021/09/09 01:20:41;;;;;;;19.62;14.20;;;;;;;12.52;65.64;101133.91;1725612;82;20882;-78
2021/09/09 01:23:08;;;;;;;20.15;14.18;;;;;;;12.49;65.63;101126.62;1719812;82;21450;-78
2021/09/09 01:25:35;;;;;;;22.62;14.95;;;;;;;12.45;65.69;101125.84;1711922;82;20926;-78
2021/09/09 01:28:03;;;;;;;19.67;14.58;;;;;;;12.44;65.74;101128.02;1702171;83;20887;-78
2021/09/09 01:30:29;;;;;;;16.80;13.48;;;;;;;12.42;65.82;101125.89;1721760;82;20957;-78
2021/09/09 01:32:56;;;;;;;15.15;12.68;;;;;;;12.40;65.82;101128.08;1718084;82;21431;-78
2021/09/09 01:35:22;;;;;;;21.07;14.47;;;;;;;12.39;65.84;101125.08;1729258;82;20921;-78
2021/09/09 01:37:49;;;;;;;20.48;13.95;;;;;;;12.36;65.90;101123.82;1727673;81;20887;-78
2021/09/09 01:40:15;;;;;;;21.30;14.83;;;;;;;12.32;65.93;101123.02;1722847;82;20913;-78
2021/09/09 01:42:41;;;;;;;21.00;13.65;;;;;;;12.31;65.99;101123.03;1722963;82;20906;-78
2021/09/09 01:45:09;;;;;;;18.12;13.70;;;;;;;12.27;66.00;101114.45;1724765;81;20886;-78
2021/09/09 01:47:35;;;;;;;18.60;13.72;;;;;;;12.28;66.09;101121.78;1727419;82;20886;-78
2021/09/09 01:50:02;;;;;;;17.15;13.05;;;;;;;12.27;66.11;101120.92;1723544;82;20910;-78
2021/09/09 01:52:28;;;;;;;16.35;13.50;;;;;;;12.25;66.08;101114.91;1720010;82;20857;-78
2021/09/09 01:54:55;;;;;;;15.72;12.58;;;;;;;12.22;66.09;101126.18;1722699;82;20887;-78
2021/09/09 01:57:21;;;;;;;19.25;12.07;;;;;;;12.17;66.12;101116.31;1736797;82;26806;-78
2021/09/09 01:59:48;;;;;;;15.05;12.07;;;;;;;12.15;66.14;101124.99;1729069;81;20871;-78
2021/09/09 02:02:14;;;;;;;14.28;12.00;;;;;;;12.10;66.13;101121.61;1727441;82;21071;-78
2021/09/09 02:04:40;;;;;;;17.75;11.68;;;;;;;12.07;66.18;101120.35;1724755;82;20901;-78
2021/09/09 02:07:07;;;;;;;14.00;11.73;;;;;;;12.04;66.20;101121.69;1712363;82;20941;-78
2021/09/09 02:09:33;;;;;;;16.32;11.18;;;;;;;11.99;66.26;101118.30;1722891;82;20961;-78
2021/09/09 02:11:59;;;;;;;17.70;12.80;;;;;;;11.95;66.28;101117.52;1725674;82;20946;-78
2021/09/09 02:14:25;;;;;;;15.18;12.10;;;;;;;11.92;66.33;101117.12;1719582;82;20915;-78
2021/09/09 02:16:52;;;;;;;17.02;12.68;;;;;;;11.90;66.39;101112.84;1702338;83;20960;-78
2021/09/09 02:19:18;;;;;;;16.80;13.15;;;;;;;11.86;66.40;101110.72;1726328;82;20937;-78
2021/09/09 02:21:44;;;;;;;14.47;12.37;;;;;;;11.84;66.48;101108.59;1730039;82;20940;-78
2021/09/09 02:24:11;;;;;;;14.20;12.70;;;;;;;11.82;66.48;101112.94;1721780;82;20903;-78
2021/09/09 02:26:37;;;;;;;16.35;13.05;;;;;;;11.80;66.53;101106.06;1712005;82;20952;-78
2021/09/09 02:29:03;;;;;;;12.95;11.43;;;;;;;11.78;66.54;101106.52;1722275;82;20926;-78
2021/09/09 02:31:30;;;;;;;16.82;12.00;;;;;;;11.76;66.59;101105.65;1701163;83;20898;-78
2021/09/09 02:33:56;;;;;;;14.90;12.20;;;;;;;11.73;66.61;101102.66;1718919;82;20931;-78
2021/09/09 02:36:22;;;;;;;15.83;11.90;;;;;;;11.70;66.66;101101.41;1721422;82;20980;-78
2021/09/09 02:38:49;;;;;;;17.48;11.55;;;;;;;11.68;66.64;101098.41;1681165;84;20929;-78
2021/09/09 02:41:15;;;;;;;15.32;11.45;;;;;;;11.67;66.72;101102.73;1678286;84;20937;-78
2021/09/09 02:43:41;;;;;;;12.93;11.28;;;;;;;11.66;66.73;101100.16;1657275;85;20933;-78
2021/09/09 02:46:09;;;;;;;13.30;10.78;;;;;;;11.62;66.77;101096.75;1698965;83;20909;-78
2021/09/09 02:48:36;;;;;;;13.80;11.53;;;;;;;11.60;66.78;101095.91;1675033;85;20923;-78
2021/09/09 02:51:02;;;;;;;13.08;11.45;;;;;;;11.56;66.80;101095.09;1656783;85;20940;-78
2021/09/09 02:53:28;;;;;;;20.52;11.73;;;;;;;11.54;66.83;101094.70;1673935;84;20909;-78
2021/09/09 02:55:55;;;;;;;16.10;11.93;;;;;;;11.52;66.82;101089.97;1667175;84;20919;-78
2021/09/09 02:58:22;;;;;;;13.45;11.08;;;;;;;11.47;66.88;101091.76;1678806;84;20901;-78
2021/09/09 03:00:49;;;;;;;15.60;11.53;;;;;;;11.43;66.88;101092.27;1669422;84;20960;-78
2021/09/09 03:03:15;;;;;;;15.90;11.60;;;;;;;11.40;66.91;101095.33;1666418;84;20972;-78
2021/09/09 03:05:42;;;;;;;16.97;12.00;;;;;;;11.36;66.99;101097.09;1667563;84;20975;-78
2021/09/09 03:08:09;;;;;;;14.75;11.88;;;;;;;11.36;67.06;101092.35;1669323;84;20900;-78
2021/09/09 03:10:35;;;;;;;15.75;11.73;;;;;;;11.35;67.08;101095.38;1673532;84;20916;-78
2021/09/09 03:13:02;;;;;;;16.23;11.80;;;;;;;11.34;67.10;101094.10;1670660;83;20975;-78
2021/09/09 03:15:29;;;;;;;16.07;12.37;;;;;;;11.32;67.09;101094.56;1667164;84;20923;-78
2021/09/09 03:17:55;;;;;;;15.43;12.07;;;;;;;11.27;67.16;101086.41;1666450;84;20925;-78
2021/09/09 03:20:21;;;;;;;15.67;12.10;;;;;;;11.26;67.13;101085.98;1665414;84;20924;-78
2021/09/09 03:22:48;;;;;;;15.32;12.60;;;;;;;11.23;67.19;101082.14;1664854;86;21156;-78
2021/09/09 03:25:16;;;;;;;18.32;11.80;;;;;;;11.20;67.16;101083.46;1664618;84;20956;-78
2021/09/09 03:27:43;;;;;;;14.87;11.73;;;;;;;11.16;67.17;101083.52;1679831;84;20900;-78
2021/09/09 03:30:10;;;;;;;18.42;13.80;;;;;;;11.13;67.21;101083.55;1666446;86;20920;-78
2021/09/09 03:32:37;;;;;;;15.15;12.25;;;;;;;11.11;67.23;101083.56;1663451;84;20995;-78
2021/09/09 03:35:04;;;;;;;14.18;12.10;;;;;;;11.07;67.25;101083.17;1665021;85;20916;-78
2021/09/09 03:37:30;;;;;;;;;;;;;;;11.04;67.28;101084.94;1667022;85;20999;-78
2021/09/09 03:39:56;;;;;;;13.10;11.18;;;;;;;11.00;67.63;101085.40;1664925;83;20132;-78
2021/09/09 03:42:23;;;;;;;16.15;12.60;;;;;;;10.95;67.37;101082.86;1665296;84;20984;-78
2021/09/09 03:44:58;;;;;;;16.45;13.00;;;;;;;10.91;67.41;101086.81;1666378;84;21059;-78
2021/09/09 03:47:25;;;;;;;19.45;12.88;;;;;;;10.90;67.55;101085.10;1666486;86;20916;-78
2021/09/09 03:49:51;;;;;;;17.07;12.40;;;;;;;10.88;67.49;101086.41;1665642;84;20931;-78
2021/09/09 03:52:18;;;;;;;15.00;12.20;;;;;;;10.86;67.56;101079.53;1680186;84;20890;-78
2021/09/09 03:54:45;;;;;;;14.65;11.78;;;;;;;10.83;67.65;101076.98;1676260;84;20925;-78
2021/09/09 03:57:11;;;;;;;14.38;11.05;;;;;;;10.84;67.65;101083.87;1665984;84;20971;-78
2021/09/09 03:59:38;;;;;;;16.82;12.33;;;;;;;10.85;67.77;101077.81;1673060;84;20959;-78
2021/09/09 04:02:04;;;;;;;14.58;11.25;;;;;;;10.86;67.77;101078.24;1663841;84;148051;-78
2021/09/09 04:04:33;;;;;;;13.35;11.50;;;;;;;10.84;67.70;101077.40;1665196;84;20971;-78
2021/09/09 04:06:59;;;;;;;12.88;10.60;;;;;;;10.81;67.73;101082.16;1666059;84;20935;-78
2021/09/09 04:09:25;;;;;;;17.12;10.88;;;;;;;10.78;67.71;101076.16;1666606;86;20982;-78
2021/09/09 04:12:00;;;;;;;12.60;10.90;;;;;;;10.75;67.75;101076.19;1665771;84;21001;-78
2021/09/09 04:14:27;;;;;;;12.15;10.88;;;;;;;10.74;67.76;101079.22;1666401;86;20959;-78
2021/09/09 04:16:53;;;;;;;18.15;10.80;;;;;;;10.70;67.81;101077.52;1662728;86;20890;-78
2021/09/09 04:19:19;;;;;;;12.00;10.80;;;;;;;10.67;67.85;101076.26;1666693;84;21553;-78
2021/09/09 04:21:46;;;;;;;16.30;10.88;;;;;;;10.66;67.88;101070.66;1677210;84;20931;-78
2021/09/09 04:24:13;;;;;;;12.00;10.18;;;;;;;10.64;67.91;101065.94;1666493;86;20952;-78
2021/09/09 04:26:40;;;;;;;10.70;9.33;;;;;;;10.63;67.91;101069.39;1657660;83;20907;-78
2021/09/09 04:29:06;;;;;;;13.62;9.98;;;;;;;10.61;67.93;101066.83;1663804;83;20978;-78
2021/09/09 04:31:34;;;;;;;20.77;10.55;;;;;;;10.60;67.95;101069.42;1666701;84;20919;-78
2021/09/09 04:34:01;;;;;;;11.15;9.75;;;;;;;10.57;67.94;101064.28;1665861;84;20934;-78
2021/09/09 04:36:27;;;;;;;16.07;10.60;;;;;;;10.55;67.97;101062.14;1665563;84;20926;-78
2021/09/09 04:38:54;;;;;;;11.50;9.18;;;;;;;10.54;68.01;101059.99;1662575;84;20927;-78
2021/09/09 04:41:20;;;;;;;11.33;10.23;;;;;;;10.53;68.02;101064.73;1666467;84;20895;-78
2021/09/09 04:43:51;;;;;;;11.60;10.15;;;;;;;10.52;68.11;101059.14;1666600;86;20888;-78
2021/09/09 04:46:17;;;;;;;;;;;;;;;10.55;68.18;101059.55;1668740;85;20963;-78
2021/09/09 04:48:43;;;;;;;12.47;9.83;;;;;;;10.55;68.48;101056.53;1670296;84;20163;-78
2021/09/09 04:51:16;;;;;;;16.00;10.60;;;;;;;10.50;68.22;101049.25;1667273;85;20912;-78
2021/09/09 04:53:43;;;;;;;11.75;10.40;;;;;;;10.54;68.25;101050.94;1666686;85;20920;-78
2021/09/09 04:56:09;;;;;;;10.63;9.68;;;;;;;10.57;68.32;101051.34;1664800;84;20931;-78
2021/09/09 04:58:43;;;;;;;12.33;9.83;;;;;;;10.59;68.32;101055.64;1664975;86;20892;-78
2021/09/09 05:01:10;;;;;;;10.88;9.78;;;;;;;10.62;68.30;101050.87;1671612;84;20917;-78
2021/09/09 05:03:36;;;;;;;12.53;11.22;;;;;;;10.65;68.37;101039.64;1673690;84;20972;-78
2021/09/09 05:06:02;;;;;;;12.37;10.03;;;;;;;10.68;68.42;101043.49;1677217;84;20923;-78
2021/09/09 05:08:29;;;;;;;14.65;10.18;;;;;;;10.73;68.46;101044.31;1666202;86;20978;-78
2021/09/09 05:10:55;;;;;;;19.55;10.75;;;;;;;10.76;68.51;101037.37;1665671;85;20927;-78
2021/09/09 05:13:21;;;;;;;13.60;10.20;;;;;;;10.80;68.55;101038.20;1657567;84;20979;-78
2021/09/09 05:15:48;;;;;;;15.15;10.30;;;;;;;10.86;68.62;101040.30;1660758;84;20959;-78
2021/09/09 05:18:14;;;;;;;16.10;11.38;;;;;;;10.93;68.64;101037.17;1665293;84;20880;-78
2021/09/09 05:20:40;;;;;;;16.48;12.43;;;;;;;11.03;68.72;101034.91;1666024;86;21336;-78
2021/09/09 05:23:07;;;;;;;13.53;12.05;;;;;;;11.16;68.88;101027.86;1664403;84;21047;-78
2021/09/09 05:25:33;;;;;;;15.95;12.75;;;;;;;11.30;68.93;101028.99;1668036;83;421726;-78
2021/09/09 05:28:00;;;;;;;17.17;13.43;;;;;;;11.43;68.99;101025.38;1715627;82;20941;-78
2021/09/09 05:30:40;;;;;;;16.23;13.00;;;;;;;11.55;68.99;101031.22;1700560;82;20897;-78
2021/09/09 05:33:06;;;;;;;17.02;13.20;;;;;;;11.69;69.03;101021.11;1709950;82;20937;-78
2021/09/09 05:35:32;;;;;;;17.80;13.30;;;;;;;11.83;69.09;101026.55;1710076;83;20902;-78
2021/09/09 05:38:00;;;;;;;16.45;13.65;;;;;;;11.97;69.12;101022.88;1712282;82;20893;-78
2021/09/09 05:40:27;;;;;;;18.40;13.60;;;;;;;12.09;69.17;101023.55;1718786;82;25067;-78
2021/09/09 05:42:53;;;;;;;17.45;13.45;;;;;;;12.24;69.24;101028.48;1710168;83;20982;-78
2021/09/09 05:45:30;;;;;;;16.07;13.15;;;;;;;12.41;69.30;101020.88;1709975;83;20988;-78
2021/09/09 05:47:57;;;;;;;15.98;13.62;;;;;;;12.63;69.36;101027.37;1732167;81;134259;-78
2021/09/09 05:50:23;;;;;;;18.95;13.72;;;;;;;12.81;69.36;101023.59;1705075;82;20866;-78
2021/09/09 05:52:49;;;;;;;19.48;13.03;;;;;;;13.01;69.40;101017.55;1717087;82;20862;-78
2021/09/09 05:55:16;;;;;;;23.95;13.08;;;;;;;13.19;69.37;101015.92;1727851;82;20893;-78
2021/09/09 05:57:43;;;;;;;18.52;13.13;;;;;;;13.37;69.37;101017.73;1723186;82;20961;-78
2021/09/09 06:00:11;;;;;;;13.78;12.28;;;;;;;13.55;69.36;101021.20;1741957;81;20968;-78
2021/09/09 06:02:45;;;;;;;15.75;12.20;;;;;;;13.73;69.37;101013.45;1720299;82;20861;-78
2021/09/09 06:05:10;;;;;;;17.35;12.40;;;;;;;13.90;69.35;101011.33;1712688;82;20897;-78
2021/09/09 06:07:36;;;;;;;14.55;11.90;;;;;;;14.07;69.36;101007.85;1702120;83;20963;-78
2021/09/09 06:10:10;;;;;;;16.12;11.50;;;;;;;14.28;69.40;101010.83;1718035;82;20881;-78
2021/09/09 06:12:36;;;;;;;;;;;;;;;14.57;69.51;101007.03;1727499;81;20912;-78
2021/09/09 06:15:04;;;;;;;12.60;11.03;;;;;;;14.96;70.03;100997.76;1718265;82;20725;-78
2021/09/09 06:17:31;;;;;;;13.08;11.35;;;;;;;15.42;69.64;101002.02;1717854;82;20941;-78
2021/09/09 06:19:57;;;;;;;19.62;10.65;;;;;;;15.88;69.58;100993.66;1718235;82;20893;-78
2021/09/09 06:22:24;;;;;;;12.80;10.08;;;;;;;16.37;69.54;100994.63;1717613;83;20925;-78
2021/09/09 06:24:50;;;;;;;13.13;9.80;;;;;;;16.87;69.43;100986.80;1715512;82;160854;-79
2021/09/09 06:27:16;;;;;;;10.65;9.55;;;;;;;17.34;69.34;100988.94;1704340;82;21480;-79
2021/09/09 06:29:43;;;;;;;15.05;10.08;;;;;;;17.82;69.27;100985.34;1715888;82;21084;-79
2021/09/09 06:32:09;;;;;;;13.25;9.83;;;;;;;18.26;69.12;100986.58;1715879;83;21056;-79
2021/09/09 06:34:35;;;;;;;11.50;9.35;;;;;;;18.69;69.04;100985.63;1708529;82;21043;-79
2021/09/09 06:37:02;;;;;;;16.70;9.05;;;;;;;19.14;69.00;100985.33;1709755;82;21036;-78
2021/09/09 06:39:29;;;;;;;12.00;8.13;;;;;;;19.54;68.79;100983.49;1715991;82;21055;-78
2021/09/09 06:41:55;;;;;;;11.22;8.23;;;;;;;19.94;68.78;100991.12;1729897;82;21080;-78
2021/09/09 06:44:21;;;;;;;11.78;9.05;;;;;;;20.31;68.59;100984.03;1715110;82;20960;-78
2021/09/09 06:46:48;;;;;;;10.75;8.45;;;;;;;20.67;68.51;100989.22;1719936;82;21099;-78
2021/09/09 06:49:14;;;;;;;11.18;8.25;;;;;;;21.02;68.31;100991.28;1722606;81;21499;-78
2021/09/09 06:51:40;;;;;;;10.50;7.85;;;;;;;21.35;68.31;100990.78;1717725;81;21040;-78
2021/09/09 06:54:07;;;;;;;12.78;7.85;;;;;;;21.68;68.17;100986.75;1718301;82;21075;-78
2021/09/09 06:56:33;;;;;;;15.13;8.00;;;;;;;22.00;68.04;100991.95;1718526;82;21048;-78
2021/09/09 06:59:01;;;;;;;8.45;7.60;;;;;;;22.27;67.92;100991.70;1718138;82;21464;-78
2021/09/09 07:01:28;;;;;;;11.03;7.03;;;;;;;22.50;67.76;100985.52;1723717;81;21073;-78
2021/09/09 07:03:54;;;;;;;14.15;7.35;;;;;;;22.72;67.58;100986.77;1718002;82;21032;-78
2021/09/09 07:06:21;;;;;;;17.42;6.83;;;;;;;22.98;67.45;100983.02;1719690;81;21123;-78
2021/09/09 07:08:47;;;;;;;9.70;6.78;;;;;;;23.25;67.37;100985.27;1718048;82;25244;-78
2021/09/09 07:11:20;;;;;;;9.60;7.00;;;;;;;23.50;67.13;100984.52;1717735;82;21509;-78
2021/09/09 07:13:46;;;;;;;16.90;6.92;;;;;;;23.76;66.89;100987.70;1716247;81;21495;-78
2021/09/09 07:16:13;;;;;;;13.22;6.30;;;;;;;23.97;66.79;100985.89;1718146;82;20976;-78
2021/09/09 07:18:39;;;;;;;8.53;7.15;;;;;;;24.15;66.57;100984.67;1652073;82;5449062;-78
2021/09/09 07:21:07;;;;;;;7.10;6.40;;;;;;;24.36;66.36;100983.73;1718457;82;21056;-78
2021/09/09 07:23:34;;;;;;;7.42;6.30;;;;;;;24.52;66.12;100980.39;1724385;82;20937;-78
2021/09/09 07:26:00;;;;;;;7.22;6.60;;;;;;;24.70;66.00;100985.75;1728103;82;20929;-78
2021/09/09 07:28:27;;;;;;;7.28;6.25;;;;;;;24.98;66.09;100977.22;1712603;82;20971;-78
2021/09/09 07:30:53;;;;;;;9.10;6.35;;;;;;;25.39;66.29;100977.77;1719310;82;21357;-78
2021/09/09 07:33:19;;;;;;;8.25;6.03;;;;;;;25.83;66.32;100983.44;1719222;82;20913;-78
2021/09/09 07:35:46;;;;;;;8.28;5.83;;;;;;;26.27;65.83;100980.09;1719954;82;20893;-78
2021/09/09 07:38:12;;;;;;;10.08;6.28;;;;;;;26.60;65.30;100983.30;1719147;82;21306;-78
2021/09/09 07:40:38;;;;;;;14.33;6.28;;;;;;;26.91;64.61;100979.11;1719816;82;20877;-78
2021/09/09 07:43:05;;;;;;;11.60;6.78;;;;;;;27.22;63.59;100986.82;1719751;82;20921;-78
2021/09/09 07:45:31;;;;;;;6.00;5.50;;;;;;;27.22;62.68;100980.18;1719914;81;20945;-78
2021/09/09 07:47:57;;;;;;;10.43;6.17;;;;;;;27.18;62.15;100981.39;1717113;82;20905;-78
2021/09/09 07:50:24;;;;;;;7.05;5.87;;;;;;;26.89;61.74;100987.67;1717758;82;20944;-78
2021/09/09 07:55:18;;;;;;;11.17;7.57;;;;;;;26.31;61.55;100980.25;1815173;77;22502;-78
2021/09/09 07:57:46;;;;;;;8.40;6.47;;;;;;;26.14;61.24;100992.09;1797665;79;21014;-78
2021/09/09 08:00:14;;;;;;;7.85;6.53;;;;;;;25.98;60.80;100992.42;1799973;79;21008;-78
2021/09/09 08:02:41;;;;;;;9.10;5.83;;;;;;;25.91;60.70;100988.53;1794571;77;21005;-78
2021/09/09 08:05:08;;;;;;;12.88;5.03;;;;;;;25.87;60.19;100989.72;1795223;77;21037;-78
2021/09/09 08:07:42;;;;;;;9.75;5.47;;;;;;;25.77;59.93;100990.03;1789901;77;20961;-78
2021/09/09 08:10:13;;;;;;;9.70;6.00;;;;;;;25.73;59.77;100994.70;1803182;77;20867;-78
2021/09/09 08:12:40;;;;;;;9.43;5.45;;;;;;;25.67;59.41;101000.45;1788596;77;21025;-78
2021/09/09 08:15:07;;;;;;;6.90;5.87;;;;;;;25.59;59.17;100992.19;1796789;77;21001;-78
2021/09/09 08:17:34;;;;;;;11.28;5.22;;;;;;;25.57;58.86;100994.09;1763262;79;21040;-78
2021/09/09 08:20:01;;;;;;;12.07;5.08;;;;;;;25.65;58.53;101001.05;1802923;78;20977;-78
2021/09/09 08:22:28;;;;;;;11.73;5.47;;;;;;;25.73;58.23;100988.09;1792348;79;21100;-78
2021/09/09 08:24:54;;;;;;;7.58;5.42;;;;;;;25.65;57.97;100990.45;1796202;79;20929;-78
2021/09/09 08:27:22;;;;;;;10.43;5.28;;;;;;;25.60;57.75;100993.88;1798085;78;20985;-78
2021/09/09 08:29:48;;;;;;;5.25;4.75;;;;;;;25.41;57.50;100977.66;1792130;79;21428;-78
2021/09/09 08:32:15;;;;;;;12.45;5.33;;;;;;;25.44;57.36;100981.41;1789234;78;21049;-78
2021/09/09 08:34:41;;;;;;;12.70;5.33;;;;;;;25.47;56.98;100986.48;1793854;79;21462;-78
2021/09/09 08:37:08;;;;;;;7.80;4.95;;;;;;;25.60;56.75;100983.77;1798710;79;21008;-78
2021/09/09 08:39:34;;;;;;;11.40;5.10;;;;;;;25.85;56.74;100982.36;1797860;79;21039;-78
2021/09/09 08:42:01;;;;;;;8.58;4.75;;;;;;;26.21;57.21;100979.22;1787758;79;21284;-78
2021/09/09 08:44:27;;;;;;;9.30;4.50;;;;;;;26.73;57.47;100977.89;1811849;78;20972;-78
2021/09/09 08:46:53;;;;;;;10.08;5.10;;;;;;;27.46;57.29;100977.37;1790527;78;20958;-78
2021/09/09 08:49:25;;;;;;;6.70;5.10;;;;;;;28.26;56.76;100975.98;1794991;78;20965;-78
2021/09/09 08:51:53;;;;;;;8.70;4.85;;;;;;;28.93;56.03;100978.19;1800702;79;20984;-79
2021/09/09 08:54:20;;;;;;;7.25;4.90;;;;;;;29.46;55.16;100970.42;1802716;78;21396;-79
2021/09/09 08:56:47;;;;;;;8.10;4.62;;;;;;;29.74;53.82;100974.92;1793188;79;21032;-79
2021/09/09 08:59:13;;;;;;;;;;;;;;;28.64;53.26;100970.02;1787250;79;20977;-79
2021/09/09 09:02:08;;;;;;;8.73;4.75;;;;;;;27.62;52.32;100971.17;1801355;79;20555;-79
2021/09/09 09:04:36;;;;;;;10.40;4.50;;;;;;;26.98;53.38;100963.94;1754995;81;21477;-79
2021/09/09 09:07:05;;;;;;;9.53;4.92;;;;;;;26.41;52.97;100961.35;1739697;80;21552;-79
2021/09/09 09:09:34;;;;;;;6.25;4.30;;;;;;;25.97;52.85;100960.73;1712112;82;20978;-79
2021/09/09 09:12:06;;;;;;;6.22;4.10;;;;;;;25.62;52.70;100958.01;1793228;79;21509;-79
2021/09/09 09:14:34;;;;;;;6.67;4.33;;;;;;;25.36;52.41;100955.97;1789615;79;21533;-79
2021/09/09 09:17:04;;;;;;;10.32;4.45;;;;;;;25.13;52.26;100959.41;1794056;78;21498;-79
2021/09/09 09:19:34;;;;;;;7.08;4.50;;;;;;;24.96;51.64;100950.87;1787075;79;21501;-79
2021/09/09 09:22:05;;;;;;;9.18;4.33;;;;;;;24.75;51.58;100950.57;1802837;79;21769;-79
2021/09/09 09:24:33;;;;;;;8.15;3.75;;;;;;;24.62;51.52;100960.78;1799538;79;21398;-79
2021/09/09 09:27:14;;;;;;;5.30;3.83;;;;;;;24.49;51.17;100955.48;1777643;79;20902;-79
2021/09/09 09:29:45;;;;;;;6.65;4.42;;;;;;;24.36;50.89;100938.80;1802980;79;21363;-79
2021/09/09 09:32:18;;;;;;;7.75;4.12;;;;;;;24.24;50.75;100934.31;1798475;79;21344;-79
2021/09/09 09:34:46;;;;;;;10.68;5.70;;;;;;;24.19;50.64;100933.78;1793087;79;21470;-79
2021/09/09 09:37:22;;;;;;;;;;;;;;;24.18;50.65;100928.97;1804002;79;21351;-79
2021/09/09 09:39:49;;;;;;;7.45;4.25;;;;;;;24.21;50.04;100927.44;1803116;79;20814;-79
2021/09/09 09:42:16;;;;;;;7.95;4.22;;;;;;;24.22;50.24;100924.33;1786126;79;20894;-79
2021/09/09 09:44:47;;;;;;;8.55;4.58;;;;;;;24.18;49.93;100914.44;1802980;79;21403;-79
2021/09/09 09:47:22;;;;;;;10.75;4.17;;;;;;;24.01;49.71;100883.03;1802947;79;21750;-79
2021/09/09 09:49:53;;;;;;;9.98;3.35;;;;;;;24.12;49.60;100910.05;1802364;79;20878;-79
2021/09/09 09:52:29;;;;;;;6.58;3.40;;;;;;;24.10;49.38;100910.15;1786261;79;21481;-79
2021/09/09 09:54:59;;;;;;;10.78;3.60;;;;;;;24.13;49.32;100905.97;1791779;79;21530;-78
2021/09/09 09:57:29;;;;;;;4.45;3.50;;;;;;;24.18;49.13;100909.16;1766072;79;21490;-78
2021/09/09 09:59:56;;;;;;;6.97;3.00;;;;;;;24.24;48.98;100902.13;1782901;79;21481;-78
2021/09/09 10:02:24;;;;;;;5.60;3.42;;;;;;;24.26;48.69;100900.27;1796555;79;21344;-78
2021/09/09 10:04:52;;;;;;;11.12;3.77;;;;;;;24.27;48.54;100891.86;1792041;79;20926;-78
2021/09/09 10:07:19;;;;;;;8.20;3.27;;;;;;;24.25;48.45;100886.67;1782356;79;21408;-78
2021/09/09 10:09:48;;;;;;;4.45;3.20;;;;;;;24.26;48.35;100894.97;1793155;79;20981;-78
2021/09/09 10:12:16;;;;;;;12.63;3.80;;;;;;;24.29;48.19;100892.59;1780693;79;21387;-78
2021/09/09 10:14:49;;;;;;;6.65;4.03;;;;;;;24.36;48.07;100893.39;1794326;79;21450;-78
2021/09/09 10:17:21;;;;;;;8.18;3.87;;;;;;;24.40;47.81;100900.64;1788225;79;20886;-78
2021/09/09 10:19:49;;;;;;;8.05;3.65;;;;;;;24.41;47.77;100889.95;1789760;79;21513;-78
2021/09/09 10:22:23;;;;;;;6.65;3.58;;;;;;;24.45;47.71;100896.32;1798464;79;21363;-78
2021/09/09 10:24:53;;;;;;;11.03;5.08;;;;;;;24.47;47.52;100897.06;1799899;79;21790;-78
2021/09/09 10:27:34;;;;;;;10.60;3.90;;;;;;;24.48;47.27;100895.63;1796892;79;21348;-78
2021/09/09 10:30:18;;;;;;;8.03;3.95;;;;;;;24.50;47.27;100897.70;1803156;79;21383;-78
2021/09/09 10:32:54;;;;;;;9.33;3.50;;;;;;;24.51;47.21;100886.16;1796001;79;21437;-78
2021/09/09 10:35:30;;;;;;;4.00;3.00;;;;;;;24.53;46.77;100889.55;1792808;78;21411;-78
2021/09/09 10:38:00;;;;;;;8.43;3.42;;;;;;;24.53;46.88;100885.58;1802609;79;21517;-78
2021/09/09 10:40:36;;;;;;;6.70;3.42;;;;;;;24.54;46.85;100880.66;1773111;79;20898;-78
2021/09/09 10:43:29;;;;;;;7.20;3.65;;;;;;;24.58;46.61;100878.66;1802718;79;21442;-78
2021/09/09 10:46:10;;;;;;;8.80;3.27;;;;;;;24.60;46.58;100882.88;1782968;79;21343;-78
2021/09/09 10:48:38;;;;;;;8.88;3.33;;;;;;;24.64;46.62;100880.39;1795626;79;21339;-78
2021/09/09 10:51:12;;;;;;;5.47;3.60;;;;;;;24.70;46.48;100875.99;1802941;79;21355;-78
2021/09/09 10:53:42;;;;;;;8.90;3.50;;;;;;;24.76;46.39;100870.74;1801991;79;21454;-78
2021/09/09 10:56:26;;;;;;;5.67;3.35;;;;;;;24.78;46.27;100858.26;1802441;79;21266;-78
2021/09/09 10:59:15;;;;;;;5.87;3.12;;;;;;;24.78;46.23;100860.05;1802083;79;20918;-78
2021/09/09 11:01:44;;;;;;;8.05;3.22;;;;;;;24.84;46.11;100865.76;1800433;79;21355;-78
2021/09/09 11:04:34;;;;;;;10.90;3.60;;;;;;;24.88;45.97;100860.61;1781654;79;20882;-78
2021/09/09 11:07:02;;;;;;;3.62;3.00;;;;;;;24.90;45.79;100861.83;1795717;79;20886;-78
2021/09/09 11:09:29;;;;;;;6.55;3.35;;;;;;;24.89;45.66;100860.98;1802965;79;20934;-78
2021/09/09 11:12:04;;;;;;;11.00;4.10;;;;;;;24.90;45.59;100862.67;1802927;79;20953;-78
2021/09/09 11:14:32;;;;;;;9.85;3.50;;;;;;;24.90;45.53;100860.03;1801789;79;21089;-79
2021/09/09 11:17:06;;;;;;;6.10;2.75;;;;;;;24.92;45.44;100855.95;1803643;79;20910;-80
2021/09/09 11:19:34;;;;;;;6.12;3.40;;;;;;;24.96;45.28;100852.97;1778596;79;20851;-80
2021/09/09 11:22:06;;;;;;;8.50;3.80;;;;;;;24.99;45.18;100850.58;1799325;79;20914;-80
2021/09/09 11:24:35;;;;;;;5.50;3.37;;;;;;;25.01;45.10;100852.16;1800872;79;20953;-80